sensor_id;sensor_type;location;lat;lon;timestamp;temperature;humidity
13970;DHT22;7057;49.984;8.404;2022-08-01T00:01:55;23.70;99.90
13970;DHT22;7057;49.984;8.404;2022-08-01T00:04:22;23.70;99.90
13970;DHT22;7057;49.984;8.404;2022-08-01T00:06:49;23.60;99.90
13970;DHT22;7057;49.984;8.404;2022-08-01T00:09:17;23.60;99.90
13970;DHT22;7057;49.984;8.404;2022-08-01T00:11:44;23.50;99.90
13970;DHT22;7057;49.984;8.404;2022-08-01T00:14:12;23.50;99.90
13970;DHT22;7057;49.984;8.404;2022-08-01T00:16:39;23.50;99.90
13970;DHT22;7057;49.984;8.404;2022-08-01T00:19:06;23.50;99.90
13970;DHT22;7057;49.984;8.404;2022-08-01T00:21:34;23.40;99.90
13970;DHT22;7057;49.984;8.404;2022-08-01T00:24:01;23.40;99.90
13970;DHT22;7057;49.984;8.404;2022-08-01T00:26:28;23.30;99.90
13970;DHT22;7057;49.984;8.404;2022-08-01T00:28:55;23.30;99.90
13970;DHT22;7057;49.984;8.404;2022-08-01T00:31:24;23.30;99.90
13970;DHT22;7057;49.984;8.404;2022-08-01T00:33:51;23.30;99.90
13970;DHT22;7057;49.984;8.404;2022-08-01T00:36:18;23.30;99.90
13970;DHT22;7057;49.984;8.404;2022-08-01T00:38:45;23.30;99.90
13970;DHT22;7057;49.984;8.404;2022-08-01T00:41:12;23.20;99.90
13970;DHT22;7057;49.984;8.404;2022-08-01T00:43:39;23.10;99.90
13970;DHT22;7057;49.984;8.404;2022-08-01T00:46:06;23.20;99.90
13970;DHT22;7057;49.984;8.404;2022-08-01T00:48:35;23.10;99.90
13970;DHT22;7057;49.984;8.404;2022-08-01T00:51:03;23.10;99.90
13970;DHT22;7057;49.984;8.404;2022-08-01T00:53:31;23.10;99.90
13970;DHT22;7057;49.984;8.404;2022-08-01T00:55:59;23.00;99.90
13970;DHT22;7057;49.984;8.404;2022-08-01T00:58:27;23.00;99.90
13970;DHT22;7057;49.984;8.404;2022-08-01T01:00:57;23.00;99.90
13970;DHT22;7057;49.984;8.404;2022-08-01T01:03:24;23.10;99.90
13970;DHT22;7057;49.984;8.404;2022-08-01T01:06:05;23.00;99.90
13970;DHT22;7057;49.984;8.404;2022-08-01T01:08:39;22.90;99.90
13970;DHT22;7057;49.984;8.404;2022-08-01T01:11:12;22.90;99.90
13970;DHT22;7057;49.984;8.404;2022-08-01T01:13:43;22.90;99.90
13970;DHT22;7057;49.984;8.404;2022-08-01T01:16:13;22.90;99.90
13970;DHT22;7057;49.984;8.404;2022-08-01T01:18:45;22.80;99.90
13970;DHT22;7057;49.984;8.404;2022-08-01T01:24:21;22.70;99.90
13970;DHT22;7057;49.984;8.404;2022-08-01T01:26:57;22.70;99.90
13970;DHT22;7057;49.984;8.404;2022-08-01T01:29:31;22.70;99.90
13970;DHT22;7057;49.984;8.404;2022-08-01T01:32:05;22.60;99.90
13970;DHT22;7057;49.984;8.404;2022-08-01T01:34:36;22.60;99.90
13970;DHT22;7057;49.984;8.404;2022-08-01T01:37:07;22.60;99.90
13970;DHT22;7057;49.984;8.404;2022-08-01T01:39:36;22.60;99.90
13970;DHT22;7057;49.984;8.404;2022-08-01T01:42:05;22.50;99.90
13970;DHT22;7057;49.984;8.404;2022-08-01T01:44:36;22.40;99.90
13970;DHT22;7057;49.984;8.404;2022-08-01T01:47:04;22.50;99.90
13970;DHT22;7057;49.984;8.404;2022-08-01T01:49:33;22.50;99.90
13970;DHT22;7057;49.984;8.404;2022-08-01T01:52:02;22.20;99.90
13970;DHT22;7057;49.984;8.404;2022-08-01T01:54:33;22.50;99.90
13970;DHT22;7057;49.984;8.404;2022-08-01T01:57:02;22.50;99.90
13970;DHT22;7057;49.984;8.404;2022-08-01T01:59:33;22.50;99.90
13970;DHT22;7057;49.984;8.404;2022-08-01T02:02:04;22.50;99.90
13970;DHT22;7057;49.984;8.404;2022-08-01T02:04:32;22.50;99.90
13970;DHT22;7057;49.984;8.404;2022-08-01T02:07:00;22.40;99.90
13970;DHT22;7057;49.984;8.404;2022-08-01T02:09:29;22.30;99.90
13970;DHT22;7057;49.984;8.404;2022-08-01T02:11:58;22.30;99.90
13970;DHT22;7057;49.984;8.404;2022-08-01T02:14:26;22.30;99.90
13970;DHT22;7057;49.984;8.404;2022-08-01T02:16:54;22.40;99.90
13970;DHT22;7057;49.984;8.404;2022-08-01T02:19:25;22.30;99.90
13970;DHT22;7057;49.984;8.404;2022-08-01T02:22:01;22.30;99.90
13970;DHT22;7057;49.984;8.404;2022-08-01T02:24:36;22.30;99.90
13970;DHT22;7057;49.984;8.404;2022-08-01T02:27:11;22.20;99.90
13970;DHT22;7057;49.984;8.404;2022-08-01T02:29:42;22.10;99.90
13970;DHT22;7057;49.984;8.404;2022-08-01T02:32:13;21.90;99.90
13970;DHT22;7057;49.984;8.404;2022-08-01T02:34:46;22.00;99.90
13970;DHT22;7057;49.984;8.404;2022-08-01T02:37:14;21.90;99.90
13970;DHT22;7057;49.984;8.404;2022-08-01T02:39:43;21.80;99.90
13970;DHT22;7057;49.984;8.404;2022-08-01T02:42:13;21.80;99.90
13970;DHT22;7057;49.984;8.404;2022-08-01T02:44:43;21.70;99.90
13970;DHT22;7057;49.984;8.404;2022-08-01T02:47:11;21.70;99.90
13970;DHT22;7057;49.984;8.404;2022-08-01T02:49:44;21.70;99.90
13970;DHT22;7057;49.984;8.404;2022-08-01T02:52:13;21.60;99.90
13970;DHT22;7057;49.984;8.404;2022-08-01T02:54:42;21.60;99.90
13970;DHT22;7057;49.984;8.404;2022-08-01T02:57:10;21.50;99.90
13970;DHT22;7057;49.984;8.404;2022-08-01T02:59:38;21.40;99.90
13970;DHT22;7057;49.984;8.404;2022-08-01T03:02:06;21.50;99.90
13970;DHT22;7057;49.984;8.404;2022-08-01T03:04:36;21.50;99.90
13970;DHT22;7057;49.984;8.404;2022-08-01T03:07:07;21.50;99.90
13970;DHT22;7057;49.984;8.404;2022-08-01T03:09:38;21.40;99.90
13970;DHT22;7057;49.984;8.404;2022-08-01T03:12:09;21.40;99.90
13970;DHT22;7057;49.984;8.404;2022-08-01T03:14:39;21.40;99.90
13970;DHT22;7057;49.984;8.404;2022-08-01T03:17:07;21.20;99.90
13970;DHT22;7057;49.984;8.404;2022-08-01T03:19:36;21.10;99.90
13970;DHT22;7057;49.984;8.404;2022-08-01T03:22:08;21.00;99.90
13970;DHT22;7057;49.984;8.404;2022-08-01T03:24:39;20.80;99.90
13970;DHT22;7057;49.984;8.404;2022-08-01T03:27:08;20.80;99.90
13970;DHT22;7057;49.984;8.404;2022-08-01T03:29:36;20.80;99.90
13970;DHT22;7057;49.984;8.404;2022-08-01T03:32:05;20.60;99.90
13970;DHT22;7057;49.984;8.404;2022-08-01T03:34:33;20.70;99.90
13970;DHT22;7057;49.984;8.404;2022-08-01T03:37:03;20.80;99.90
13970;DHT22;7057;49.984;8.404;2022-08-01T03:39:39;20.70;99.90
13970;DHT22;7057;49.984;8.404;2022-08-01T03:42:09;20.60;99.90
13970;DHT22;7057;49.984;8.404;2022-08-01T03:44:39;20.70;99.90
13970;DHT22;7057;49.984;8.404;2022-08-01T03:47:09;20.80;99.90
13970;DHT22;7057;49.984;8.404;2022-08-01T03:49:41;20.80;99.90
13970;DHT22;7057;49.984;8.404;2022-08-01T03:52:09;20.80;99.90
13970;DHT22;7057;49.984;8.404;2022-08-01T03:54:42;20.80;99.90
13970;DHT22;7057;49.984;8.404;2022-08-01T03:57:11;20.60;99.90
13970;DHT22;7057;49.984;8.404;2022-08-01T03:59:39;20.60;99.90
13970;DHT22;7057;49.984;8.404;2022-08-01T04:02:08;20.40;99.90
13970;DHT22;7057;49.984;8.404;2022-08-01T04:04:35;20.30;99.90
13970;DHT22;7057;49.984;8.404;2022-08-01T04:07:02;20.20;99.90
13970;DHT22;7057;49.984;8.404;2022-08-01T04:09:32;20.20;99.90
13970;DHT22;7057;49.984;8.404;2022-08-01T04:12:01;20.10;99.90
13970;DHT22;7057;49.984;8.404;2022-08-01T04:14:28;20.10;99.90
13970;DHT22;7057;49.984;8.404;2022-08-01T04:16:55;20.10;99.90
13970;DHT22;7057;49.984;8.404;2022-08-01T04:19:23;20.00;99.90
13970;DHT22;7057;49.984;8.404;2022-08-01T04:21:51;20.00;99.90
13970;DHT22;7057;49.984;8.404;2022-08-01T04:24:19;19.90;99.90
13970;DHT22;7057;49.984;8.404;2022-08-01T04:26:50;20.00;99.90
13970;DHT22;7057;49.984;8.404;2022-08-01T04:29:20;20.00;99.90
13970;DHT22;7057;49.984;8.404;2022-08-01T04:31:49;20.00;99.90
13970;DHT22;7057;49.984;8.404;2022-08-01T04:34:19;20.10;99.90
13970;DHT22;7057;49.984;8.404;2022-08-01T04:36:48;20.10;99.90
13970;DHT22;7057;49.984;8.404;2022-08-01T04:39:18;20.20;99.90
13970;DHT22;7057;49.984;8.404;2022-08-01T04:41:46;20.20;99.90
13970;DHT22;7057;49.984;8.404;2022-08-01T04:44:14;20.30;99.90
13970;DHT22;7057;49.984;8.404;2022-08-01T04:46:43;20.40;99.90
13970;DHT22;7057;49.984;8.404;2022-08-01T04:49:11;20.50;99.90
13970;DHT22;7057;49.984;8.404;2022-08-01T04:51:50;20.50;99.90
13970;DHT22;7057;49.984;8.404;2022-08-01T04:54:18;20.60;99.90
13970;DHT22;7057;49.984;8.404;2022-08-01T04:56:47;20.60;99.90
13970;DHT22;7057;49.984;8.404;2022-08-01T04:59:14;20.70;99.90
13970;DHT22;7057;49.984;8.404;2022-08-01T05:02:00;20.80;99.90
13970;DHT22;7057;49.984;8.404;2022-08-01T05:04:28;20.90;99.90
13970;DHT22;7057;49.984;8.404;2022-08-01T05:06:55;20.90;99.90
13970;DHT22;7057;49.984;8.404;2022-08-01T05:09:22;20.90;99.90
13970;DHT22;7057;49.984;8.404;2022-08-01T05:11:49;20.90;99.90
13970;DHT22;7057;49.984;8.404;2022-08-01T05:14:16;20.90;99.90
13970;DHT22;7057;49.984;8.404;2022-08-01T05:16:44;21.00;99.90
13970;DHT22;7057;49.984;8.404;2022-08-01T05:19:13;21.10;99.90
13970;DHT22;7057;49.984;8.404;2022-08-01T05:21:40;21.20;99.90
13970;DHT22;7057;49.984;8.404;2022-08-01T05:24:08;21.20;99.90
13970;DHT22;7057;49.984;8.404;2022-08-01T05:26:35;21.10;99.90
13970;DHT22;7057;49.984;8.404;2022-08-01T05:29:02;21.30;99.90
13970;DHT22;7057;49.984;8.404;2022-08-01T05:31:29;21.50;99.90
13970;DHT22;7057;49.984;8.404;2022-08-01T05:33:59;21.60;99.90
13970;DHT22;7057;49.984;8.404;2022-08-01T05:36:28;21.60;99.90
13970;DHT22;7057;49.984;8.404;2022-08-01T05:38:55;21.80;99.90
13970;DHT22;7057;49.984;8.404;2022-08-01T05:41:22;21.90;99.90
13970;DHT22;7057;49.984;8.404;2022-08-01T05:43:49;21.90;99.90
13970;DHT22;7057;49.984;8.404;2022-08-01T05:46:17;22.00;99.90
13970;DHT22;7057;49.984;8.404;2022-08-01T05:48:44;22.00;99.90
13970;DHT22;7057;49.984;8.404;2022-08-01T05:51:11;22.20;99.90
13970;DHT22;7057;49.984;8.404;2022-08-01T05:53:39;22.20;99.90
13970;DHT22;7057;49.984;8.404;2022-08-01T05:56:06;22.30;99.90
13970;DHT22;7057;49.984;8.404;2022-08-01T05:58:34;22.10;99.90
13970;DHT22;7057;49.984;8.404;2022-08-01T06:01:01;22.10;99.90
13970;DHT22;7057;49.984;8.404;2022-08-01T06:03:28;22.10;99.90
13970;DHT22;7057;49.984;8.404;2022-08-01T06:05:57;22.00;99.90
13970;DHT22;7057;49.984;8.404;2022-08-01T06:08:24;22.00;99.90
13970;DHT22;7057;49.984;8.404;2022-08-01T06:10:52;22.00;99.90
13970;DHT22;7057;49.984;8.404;2022-08-01T06:13:20;22.00;99.90
13970;DHT22;7057;49.984;8.404;2022-08-01T06:15:47;21.90;99.90
13970;DHT22;7057;49.984;8.404;2022-08-01T06:18:15;22.00;99.90
13970;DHT22;7057;49.984;8.404;2022-08-01T06:20:43;22.10;99.90
13970;DHT22;7057;49.984;8.404;2022-08-01T06:23:10;22.00;99.90
13970;DHT22;7057;49.984;8.404;2022-08-01T06:25:37;22.10;99.90
13970;DHT22;7057;49.984;8.404;2022-08-01T06:28:06;22.40;99.90
13970;DHT22;7057;49.984;8.404;2022-08-01T06:30:33;22.70;99.90
13970;DHT22;7057;49.984;8.404;2022-08-01T06:33:00;22.90;99.90
13970;DHT22;7057;49.984;8.404;2022-08-01T06:35:28;22.90;99.90
13970;DHT22;7057;49.984;8.404;2022-08-01T06:37:56;22.90;99.90
13970;DHT22;7057;49.984;8.404;2022-08-01T06:40:23;22.90;99.90
13970;DHT22;7057;49.984;8.404;2022-08-01T06:42:51;22.90;99.90
13970;DHT22;7057;49.984;8.404;2022-08-01T06:45:19;23.10;99.90
13970;DHT22;7057;49.984;8.404;2022-08-01T06:47:48;23.10;99.90
13970;DHT22;7057;49.984;8.404;2022-08-01T06:50:15;23.10;99.90
13970;DHT22;7057;49.984;8.404;2022-08-01T06:52:42;23.20;99.90
13970;DHT22;7057;49.984;8.404;2022-08-01T06:55:09;23.30;99.90
13970;DHT22;7057;49.984;8.404;2022-08-01T06:57:36;23.50;99.90
13970;DHT22;7057;49.984;8.404;2022-08-01T07:00:04;23.50;99.90
13970;DHT22;7057;49.984;8.404;2022-08-01T07:02:34;23.70;99.90
13970;DHT22;7057;49.984;8.404;2022-08-01T07:05:02;23.80;99.90
13970;DHT22;7057;49.984;8.404;2022-08-01T07:07:29;23.90;99.90
13970;DHT22;7057;49.984;8.404;2022-08-01T07:09:56;24.00;99.90
13970;DHT22;7057;49.984;8.404;2022-08-01T07:12:23;24.30;99.90
13970;DHT22;7057;49.984;8.404;2022-08-01T07:14:50;24.50;99.90
13970;DHT22;7057;49.984;8.404;2022-08-01T07:17:17;24.50;99.90
13970;DHT22;7057;49.984;8.404;2022-08-01T07:19:47;24.60;99.90
13970;DHT22;7057;49.984;8.404;2022-08-01T07:22:14;24.20;99.90
13970;DHT22;7057;49.984;8.404;2022-08-01T07:24:42;23.90;99.90
13970;DHT22;7057;49.984;8.404;2022-08-01T07:27:09;23.70;99.90
13970;DHT22;7057;49.984;8.404;2022-08-01T07:29:36;23.80;99.90
13970;DHT22;7057;49.984;8.404;2022-08-01T07:32:04;23.60;99.90
13970;DHT22;7057;49.984;8.404;2022-08-01T07:34:32;23.80;99.90
13970;DHT22;7057;49.984;8.404;2022-08-01T07:37:00;24.00;99.90
13970;DHT22;7057;49.984;8.404;2022-08-01T07:39:28;23.90;99.90
13970;DHT22;7057;49.984;8.404;2022-08-01T07:41:55;23.80;99.90
13970;DHT22;7057;49.984;8.404;2022-08-01T07:44:23;23.70;99.90
13970;DHT22;7057;49.984;8.404;2022-08-01T07:46:50;23.70;99.90
13970;DHT22;7057;49.984;8.404;2022-08-01T07:49:17;23.50;99.90
13970;DHT22;7057;49.984;8.404;2022-08-01T07:51:45;23.90;99.90
13970;DHT22;7057;49.984;8.404;2022-08-01T07:54:13;24.10;99.90
13970;DHT22;7057;49.984;8.404;2022-08-01T07:56:41;24.30;99.90
13970;DHT22;7057;49.984;8.404;2022-08-01T07:59:08;24.60;99.90
13970;DHT22;7057;49.984;8.404;2022-08-01T08:01:35;24.60;99.90
13970;DHT22;7057;49.984;8.404;2022-08-01T08:04:02;24.90;99.90
13970;DHT22;7057;49.984;8.404;2022-08-01T08:06:29;25.00;99.90
13970;DHT22;7057;49.984;8.404;2022-08-01T08:08:56;25.10;99.90
13970;DHT22;7057;49.984;8.404;2022-08-01T08:11:25;25.40;99.90
13970;DHT22;7057;49.984;8.404;2022-08-01T08:13:52;25.10;99.90
13970;DHT22;7057;49.984;8.404;2022-08-01T08:16:19;25.20;99.90
13970;DHT22;7057;49.984;8.404;2022-08-01T08:18:46;25.00;99.90
13970;DHT22;7057;49.984;8.404;2022-08-01T08:21:13;24.80;99.90
13970;DHT22;7057;49.984;8.404;2022-08-01T08:23:41;24.80;99.90
13970;DHT22;7057;49.984;8.404;2022-08-01T08:26:27;24.80;99.90
13970;DHT22;7057;49.984;8.404;2022-08-01T08:28:54;24.90;99.90
13970;DHT22;7057;49.984;8.404;2022-08-01T08:31:21;24.80;99.90
13970;DHT22;7057;49.984;8.404;2022-08-01T08:33:48;24.70;99.90
13970;DHT22;7057;49.984;8.404;2022-08-01T08:36:15;24.90;99.90
13970;DHT22;7057;49.984;8.404;2022-08-01T08:38:43;24.90;99.90
13970;DHT22;7057;49.984;8.404;2022-08-01T08:41:10;24.90;99.90
13970;DHT22;7057;49.984;8.404;2022-08-01T08:43:39;24.60;99.90
13970;DHT22;7057;49.984;8.404;2022-08-01T08:46:08;24.60;99.90
13970;DHT22;7057;49.984;8.404;2022-08-01T08:48:35;24.70;99.90
13970;DHT22;7057;49.984;8.404;2022-08-01T08:51:03;24.90;99.90
13970;DHT22;7057;49.984;8.404;2022-08-01T08:53:31;24.80;99.90
13970;DHT22;7057;49.984;8.404;2022-08-01T08:55:59;24.90;99.90
13970;DHT22;7057;49.984;8.404;2022-08-01T08:58:27;24.90;99.90
13970;DHT22;7057;49.984;8.404;2022-08-01T09:00:56;24.90;99.90
13970;DHT22;7057;49.984;8.404;2022-08-01T09:03:24;25.00;99.90
13970;DHT22;7057;49.984;8.404;2022-08-01T09:05:51;25.10;99.90
13970;DHT22;7057;49.984;8.404;2022-08-01T09:08:18;25.10;99.90
13970;DHT22;7057;49.984;8.404;2022-08-01T09:10:50;25.30;99.90
13970;DHT22;7057;49.984;8.404;2022-08-01T09:13:22;25.40;99.90
13970;DHT22;7057;49.984;8.404;2022-08-01T09:15:50;25.20;99.90
13970;DHT22;7057;49.984;8.404;2022-08-01T09:18:31;25.10;99.90
13970;DHT22;7057;49.984;8.404;2022-08-01T09:21:11;25.30;99.90
13970;DHT22;7057;49.984;8.404;2022-08-01T09:23:41;25.60;99.90
13970;DHT22;7057;49.984;8.404;2022-08-01T09:26:10;25.90;99.90
13970;DHT22;7057;49.984;8.404;2022-08-01T09:28:38;25.80;99.90
13970;DHT22;7057;49.984;8.404;2022-08-01T09:31:08;25.80;99.90
13970;DHT22;7057;49.984;8.404;2022-08-01T09:33:53;25.90;99.90
13970;DHT22;7057;49.984;8.404;2022-08-01T09:36:23;26.00;99.90
13970;DHT22;7057;49.984;8.404;2022-08-01T09:38:52;26.00;99.90
13970;DHT22;7057;49.984;8.404;2022-08-01T09:41:29;25.80;99.90
13970;DHT22;7057;49.984;8.404;2022-08-01T09:43:56;25.90;99.90
13970;DHT22;7057;49.984;8.404;2022-08-01T09:46:24;25.90;99.90
13970;DHT22;7057;49.984;8.404;2022-08-01T09:48:57;25.90;99.90
13970;DHT22;7057;49.984;8.404;2022-08-01T09:51:32;25.90;99.90
13970;DHT22;7057;49.984;8.404;2022-08-01T09:54:00;25.90;99.90
13970;DHT22;7057;49.984;8.404;2022-08-01T09:56:36;25.90;99.90
13970;DHT22;7057;49.984;8.404;2022-08-01T09:59:04;26.00;99.90
13970;DHT22;7057;49.984;8.404;2022-08-01T10:01:45;26.40;99.90
13970;DHT22;7057;49.984;8.404;2022-08-01T10:04:16;26.60;99.90
13970;DHT22;7057;49.984;8.404;2022-08-01T10:06:45;27.00;99.90
13970;DHT22;7057;49.984;8.404;2022-08-01T10:09:26;27.30;99.90
13970;DHT22;7057;49.984;8.404;2022-08-01T10:11:55;27.30;99.90
13970;DHT22;7057;49.984;8.404;2022-08-01T10:14:22;27.20;99.90
13970;DHT22;7057;49.984;8.404;2022-08-01T10:16:52;27.20;99.90
13970;DHT22;7057;49.984;8.404;2022-08-01T10:19:23;27.10;99.90
13970;DHT22;7057;49.984;8.404;2022-08-01T10:21:52;27.60;99.90
13970;DHT22;7057;49.984;8.404;2022-08-01T10:24:20;27.60;99.90
13970;DHT22;7057;49.984;8.404;2022-08-01T10:26:48;28.20;99.90
13970;DHT22;7057;49.984;8.404;2022-08-01T10:29:18;28.10;99.90
13970;DHT22;7057;49.984;8.404;2022-08-01T10:31:46;28.20;99.90
13970;DHT22;7057;49.984;8.404;2022-08-01T10:34:14;27.90;99.90
13970;DHT22;7057;49.984;8.404;2022-08-01T10:36:46;27.80;99.90
13970;DHT22;7057;49.984;8.404;2022-08-01T10:39:13;28.00;99.90
13970;DHT22;7057;49.984;8.404;2022-08-01T10:41:41;27.50;99.90
13970;DHT22;7057;49.984;8.404;2022-08-01T10:44:09;27.50;99.90
13970;DHT22;7057;49.984;8.404;2022-08-01T10:46:39;27.50;99.90
13970;DHT22;7057;49.984;8.404;2022-08-01T10:49:10;27.40;99.90
13970;DHT22;7057;49.984;8.404;2022-08-01T10:51:38;27.00;99.90
13970;DHT22;7057;49.984;8.404;2022-08-01T10:54:08;27.10;99.90
13970;DHT22;7057;49.984;8.404;2022-08-01T10:56:39;27.40;99.90
13970;DHT22;7057;49.984;8.404;2022-08-01T10:59:06;27.70;99.90
13970;DHT22;7057;49.984;8.404;2022-08-01T11:01:34;27.90;99.90
13970;DHT22;7057;49.984;8.404;2022-08-01T11:04:06;27.80;99.90
13970;DHT22;7057;49.984;8.404;2022-08-01T11:06:42;27.60;99.90
13970;DHT22;7057;49.984;8.404;2022-08-01T11:09:30;27.70;99.90
13970;DHT22;7057;49.984;8.404;2022-08-01T11:12:02;27.90;99.90
13970;DHT22;7057;49.984;8.404;2022-08-01T11:14:32;27.80;99.90
13970;DHT22;7057;49.984;8.404;2022-08-01T11:17:30;28.10;99.90
13970;DHT22;7057;49.984;8.404;2022-08-01T11:20:09;28.20;99.90
13970;DHT22;7057;49.984;8.404;2022-08-01T11:26:14;28.60;99.90
13970;DHT22;7057;49.984;8.404;2022-08-01T11:28:43;28.70;99.90
13970;DHT22;7057;49.984;8.404;2022-08-01T11:31:30;28.60;99.90
13970;DHT22;7057;49.984;8.404;2022-08-01T11:33:59;28.60;99.90
13970;DHT22;7057;49.984;8.404;2022-08-01T11:36:26;28.90;99.90
13970;DHT22;7057;49.984;8.404;2022-08-01T11:39:17;29.10;99.90
13970;DHT22;7057;49.984;8.404;2022-08-01T11:41:47;29.50;99.90
13970;DHT22;7057;49.984;8.404;2022-08-01T11:44:22;28.80;99.90
13970;DHT22;7057;49.984;8.404;2022-08-01T11:47:08;28.20;99.90
13970;DHT22;7057;49.984;8.404;2022-08-01T11:49:46;28.30;99.90
13970;DHT22;7057;49.984;8.404;2022-08-01T11:52:15;28.50;99.90
13970;DHT22;7057;49.984;8.404;2022-08-01T11:54:44;28.80;99.90
13970;DHT22;7057;49.984;8.404;2022-08-01T11:57:17;28.80;99.90
13970;DHT22;7057;49.984;8.404;2022-08-01T11:59:48;29.10;99.90
13970;DHT22;7057;49.984;8.404;2022-08-01T12:02:20;29.60;99.90
13970;DHT22;7057;49.984;8.404;2022-08-01T12:04:55;29.80;99.90
13970;DHT22;7057;49.984;8.404;2022-08-01T12:07:25;28.80;99.90
13970;DHT22;7057;49.984;8.404;2022-08-01T12:10:00;28.80;99.90
13970;DHT22;7057;49.984;8.404;2022-08-01T12:12:30;29.10;99.90
13970;DHT22;7057;49.984;8.404;2022-08-01T12:14:58;29.10;99.90
13970;DHT22;7057;49.984;8.404;2022-08-01T12:17:33;28.90;99.90
13970;DHT22;7057;49.984;8.404;2022-08-01T12:20:02;29.20;99.90
13970;DHT22;7057;49.984;8.404;2022-08-01T12:22:30;29.50;99.90
13970;DHT22;7057;49.984;8.404;2022-08-01T12:25:05;29.10;99.90
13970;DHT22;7057;49.984;8.404;2022-08-01T12:27:35;28.80;99.90
13970;DHT22;7057;49.984;8.404;2022-08-01T12:30:05;29.00;99.90
13970;DHT22;7057;49.984;8.404;2022-08-01T12:32:34;29.40;99.90
13970;DHT22;7057;49.984;8.404;2022-08-01T12:35:04;29.80;99.90
13970;DHT22;7057;49.984;8.404;2022-08-01T12:37:34;30.00;99.90
13970;DHT22;7057;49.984;8.404;2022-08-01T12:40:02;30.20;99.90
13970;DHT22;7057;49.984;8.404;2022-08-01T12:42:38;30.20;99.90
13970;DHT22;7057;49.984;8.404;2022-08-01T12:45:08;30.30;99.90
13970;DHT22;7057;49.984;8.404;2022-08-01T12:47:36;30.20;99.90
13970;DHT22;7057;49.984;8.404;2022-08-01T12:50:05;29.80;99.90
13970;DHT22;7057;49.984;8.404;2022-08-01T12:52:33;29.80;99.90
13970;DHT22;7057;49.984;8.404;2022-08-01T12:55:06;29.00;99.90
13970;DHT22;7057;49.984;8.404;2022-08-01T12:57:34;28.90;99.90
13970;DHT22;7057;49.984;8.404;2022-08-01T13:00:22;29.00;99.90
13970;DHT22;7057;49.984;8.404;2022-08-01T13:02:59;28.90;99.90
13970;DHT22;7057;49.984;8.404;2022-08-01T13:05:27;28.60;99.90
13970;DHT22;7057;49.984;8.404;2022-08-01T13:07:54;28.80;99.90
13970;DHT22;7057;49.984;8.404;2022-08-01T13:10:26;29.00;99.90
13970;DHT22;7057;49.984;8.404;2022-08-01T13:12:55;28.90;99.90
13970;DHT22;7057;49.984;8.404;2022-08-01T13:15:27;29.00;99.90
13970;DHT22;7057;49.984;8.404;2022-08-01T13:17:56;29.00;99.90
13970;DHT22;7057;49.984;8.404;2022-08-01T13:20:29;28.90;99.90
13970;DHT22;7057;49.984;8.404;2022-08-01T13:23:11;29.20;99.90
13970;DHT22;7057;49.984;8.404;2022-08-01T13:25:49;29.40;99.90
13970;DHT22;7057;49.984;8.404;2022-08-01T13:28:18;29.20;99.90
13970;DHT22;7057;49.984;8.404;2022-08-01T13:30:55;29.30;99.90
13970;DHT22;7057;49.984;8.404;2022-08-01T13:33:23;29.50;99.90
13970;DHT22;7057;49.984;8.404;2022-08-01T13:35:52;29.70;99.90
13970;DHT22;7057;49.984;8.404;2022-08-01T13:38:19;30.00;99.90
13970;DHT22;7057;49.984;8.404;2022-08-01T13:41:06;29.90;99.90
13970;DHT22;7057;49.984;8.404;2022-08-01T13:43:34;30.10;99.90
13970;DHT22;7057;49.984;8.404;2022-08-01T13:46:02;30.10;99.90
13970;DHT22;7057;49.984;8.404;2022-08-01T13:48:31;29.70;99.90
13970;DHT22;7057;49.984;8.404;2022-08-01T13:50:58;29.50;99.90
13970;DHT22;7057;49.984;8.404;2022-08-01T13:53:26;29.50;99.90
13970;DHT22;7057;49.984;8.404;2022-08-01T13:55:53;29.20;99.90
13970;DHT22;7057;49.984;8.404;2022-08-01T13:58:20;29.40;99.90
13970;DHT22;7057;49.984;8.404;2022-08-01T14:00:48;29.50;99.90
13970;DHT22;7057;49.984;8.404;2022-08-01T14:03:16;29.50;99.90
13970;DHT22;7057;49.984;8.404;2022-08-01T14:05:44;29.60;99.90
13970;DHT22;7057;49.984;8.404;2022-08-01T14:08:11;29.60;99.90
13970;DHT22;7057;49.984;8.404;2022-08-01T14:10:38;29.60;99.90
13970;DHT22;7057;49.984;8.404;2022-08-01T14:13:05;29.30;99.90
13970;DHT22;7057;49.984;8.404;2022-08-01T14:15:32;29.00;99.90
13970;DHT22;7057;49.984;8.404;2022-08-01T14:18:00;29.00;99.90
13970;DHT22;7057;49.984;8.404;2022-08-01T14:20:28;29.00;99.90
13970;DHT22;7057;49.984;8.404;2022-08-01T14:22:56;28.80;99.90
13970;DHT22;7057;49.984;8.404;2022-08-01T14:25:23;28.70;99.90
13970;DHT22;7057;49.984;8.404;2022-08-01T14:27:50;28.70;99.90
13970;DHT22;7057;49.984;8.404;2022-08-01T14:30:17;28.70;99.90
13970;DHT22;7057;49.984;8.404;2022-08-01T14:32:44;28.70;99.90
13970;DHT22;7057;49.984;8.404;2022-08-01T14:35:11;28.70;99.90
13970;DHT22;7057;49.984;8.404;2022-08-01T14:37:40;28.60;99.90
13970;DHT22;7057;49.984;8.404;2022-08-01T14:40:08;28.60;99.90
13970;DHT22;7057;49.984;8.404;2022-08-01T14:42:36;28.60;99.90
13970;DHT22;7057;49.984;8.404;2022-08-01T14:45:05;28.60;99.90
13970;DHT22;7057;49.984;8.404;2022-08-01T14:47:35;28.60;99.90
13970;DHT22;7057;49.984;8.404;2022-08-01T14:50:04;28.50;99.90
13970;DHT22;7057;49.984;8.404;2022-08-01T14:52:32;28.60;99.90
13970;DHT22;7057;49.984;8.404;2022-08-01T14:55:01;28.60;99.90
13970;DHT22;7057;49.984;8.404;2022-08-01T14:57:28;28.60;99.90
13970;DHT22;7057;49.984;8.404;2022-08-01T14:59:56;28.70;99.90
13970;DHT22;7057;49.984;8.404;2022-08-01T15:02:23;28.70;99.90
13970;DHT22;7057;49.984;8.404;2022-08-01T15:04:50;28.70;99.90
13970;DHT22;7057;49.984;8.404;2022-08-01T15:07:18;28.70;99.90
13970;DHT22;7057;49.984;8.404;2022-08-01T15:09:45;28.60;99.90
13970;DHT22;7057;49.984;8.404;2022-08-01T15:12:14;28.60;99.90
13970;DHT22;7057;49.984;8.404;2022-08-01T15:14:41;28.40;99.90
13970;DHT22;7057;49.984;8.404;2022-08-01T15:17:14;28.10;99.90
13970;DHT22;7057;49.984;8.404;2022-08-01T15:19:42;27.70;99.90
13970;DHT22;7057;49.984;8.404;2022-08-01T15:22:09;27.70;99.90
13970;DHT22;7057;49.984;8.404;2022-08-01T15:24:36;27.80;99.90
13970;DHT22;7057;49.984;8.404;2022-08-01T15:27:04;27.80;99.90
13970;DHT22;7057;49.984;8.404;2022-08-01T15:29:32;27.70;99.90
13970;DHT22;7057;49.984;8.404;2022-08-01T15:32:00;27.70;99.90
13970;DHT22;7057;49.984;8.404;2022-08-01T15:34:27;27.70;99.90
13970;DHT22;7057;49.984;8.404;2022-08-01T15:36:54;27.50;99.90
13970;DHT22;7057;49.984;8.404;2022-08-01T15:39:21;27.40;99.90
13970;DHT22;7057;49.984;8.404;2022-08-01T15:41:49;27.20;99.90
13970;DHT22;7057;49.984;8.404;2022-08-01T15:44:16;27.30;99.90
13970;DHT22;7057;49.984;8.404;2022-08-01T15:46:47;27.30;99.90
13970;DHT22;7057;49.984;8.404;2022-08-01T15:49:14;27.30;99.90
13970;DHT22;7057;49.984;8.404;2022-08-01T15:51:42;27.40;99.90
13970;DHT22;7057;49.984;8.404;2022-08-01T15:54:10;27.20;99.90
13970;DHT22;7057;49.984;8.404;2022-08-01T15:56:37;27.20;99.90
13970;DHT22;7057;49.984;8.404;2022-08-01T15:59:04;27.20;99.90
13970;DHT22;7057;49.984;8.404;2022-08-01T16:01:32;27.40;99.90
13970;DHT22;7057;49.984;8.404;2022-08-01T16:04:00;27.60;99.90
13970;DHT22;7057;49.984;8.404;2022-08-01T16:06:28;27.80;99.90